Firenze / Peretola, Italy

9:04 AM CET on December 08, 2016 (GMT +0100)
Peretola | | Change Station

Elev 125 ft 43.81 °N, 11.20 °E | Updated 14 minutes ago

Clear
Clear
34 °F
Feels Like 34 °F
N
0
Wind Variable Wind from North

Today
High -- | Low -- °F
--% Chance of Precip.
Yesterday
High -- | Low -- °F
Precip. -- in
Pressure 30.60 in
Visibility -9999.0 miles
Clouds
Dew Point 34 °F
Humidity 100%
Rainfall 0.00 in
Snow Depth Not available.
7:36 AM 4:37 PM
First Quarter, 61% visible
METAR LIRQ 080750Z 00000KT CAVOK 01/01 Q1036
Pressure 30.60 in
Visibility -9999.0 miles
Clouds
Dew Point 34 °F
Humidity 100%
Rainfall 0.00 in
Snow Depth Not available.
7:36 AM 4:37 PM
First Quarter, 61% visible
METAR LIRQ 080750Z 00000KT CAVOK 01/01 Q1036

10-Day Weather Forecast

×

Almanac

Astronomy

Dec. 08, 2016 Rise Set
Actual Time
Civil Twilight
Nautical Twilight
Astronomical Twilight
Moon
Length of Visible Light
Length of Day
Tomorrow will be .
, % of the Moon is Illuminated

Today's Extremes

Country Highs Country Lows

Community

WunderPhotos

Upload Photos

1,956,259 photos uploaded!

WunderBlog® & News

Nearby

Air Quality

  Air Quality AQ Index Pollutant
Not available.

Snow Depth

Station Depth Elevation

Earthquake Activity

City Distance Mag. Time & Date
Minimum magnitude displayed is 2.5.

Coastal Water Temperatures

Place Temperature

Stations

Nearby Weather Stations

Station Location Temp. Windchill Dew Point Humidity Wind Precip. Elev Updated Type